Time;durP1;ratioP1;P1;durP2;ratioP2;P2;SDS_P1;SDS_P2;PMS_P1;PMS_P2;Temp;Humidity;BMP_temperature;BMP_pressure;BME280_temperature;BME280_humidity;BME280_pressure;Samples;Min_cycle;Max_cycle;Signal;HPM_P1;HPM_P2
2022/12/22 03:28:06;;;;;;;55.30;23.98;;;;;;;-143.48;100.00;118439.88;5058096;28;20087;-66
2022/12/22 03:30:33;;;;;;;59.60;25.85;;;;;;;-143.48;100.00;118439.88;5059295;28;20025;-66
2022/12/22 03:32:58;;;;;;;49.08;23.45;;;;;;;-143.48;100.00;118439.88;5059198;28;20541;-67
2022/12/22 03:35:24;;;;;;;57.25;24.17;;;;;;;-143.48;99.99;118439.88;5040500;28;20115;-66
2022/12/22 03:37:49;;;;;;;63.90;25.63;;;;;;;-143.48;100.00;118439.88;5040881;28;20035;-66
2022/12/22 03:40:15;;;;;;;55.00;25.38;;;;;;;-143.48;100.00;118439.88;5059817;28;20487;-66
2022/12/22 03:48:08;;;;;;;61.72;24.88;;;;;;;-143.48;100.00;118439.88;5062155;28;20040;-67
2022/12/22 03:50:33;;;;;;;60.97;24.30;;;;;;;-143.48;99.94;118439.88;5062236;28;20033;-66
2022/12/22 03:52:58;;;;;;;65.32;24.42;;;;;;;-143.48;100.00;118439.88;5061938;28;20021;-66
2022/12/22 03:55:24;;;;;;;63.90;25.38;;;;;;;-143.48;100.00;118439.88;5062363;28;20025;-66
2022/12/22 03:57:49;;;;;;;68.07;26.02;;;;;;;-143.48;100.00;118439.88;5061925;28;20029;-67
2022/12/22 04:00:15;;;;;;;61.88;25.45;;;;;;;-143.48;100.00;118439.88;5072256;28;20137;-69
2022/12/22 04:02:40;;;;;;;65.57;24.13;;;;;;;-143.48;100.00;118439.88;5056324;28;20029;-67
2022/12/22 04:05:06;;;;;;;63.40;25.77;;;;;;;-143.48;100.00;118439.88;5065231;28;20037;-66
2022/12/22 04:07:31;;;;;;;96.95;25.85;;;;;;;-143.48;100.00;118439.88;5060798;28;20028;-66
2022/12/22 04:12:55;;;;;;;72.57;25.88;;;;;;;-143.48;100.00;118439.88;5062491;28;20040;-66
2022/12/22 04:15:30;;;;;;;66.43;24.80;;;;;;;-143.48;100.00;118439.88;5060997;28;20410;-66
2022/12/22 04:17:56;;;;;;;71.13;26.17;;;;;;;-143.48;100.00;118439.88;5059971;28;20028;-69
2022/12/22 04:20:25;;;;;;;83.05;26.17;;;;;;;-143.48;100.00;118439.88;5041079;28;20028;-67
2022/12/22 04:22:51;;;;;;;68.25;25.83;;;;;;;-143.48;100.00;118439.88;5058680;28;20033;-66
2022/12/22 04:25:16;;;;;;;93.57;27.38;;;;;;;-143.48;100.00;118439.88;5058762;28;20155;-66
2022/12/22 04:27:41;;;;;;;66.15;25.60;;;;;;;-143.48;100.00;118439.88;5058391;28;20021;-67
2022/12/22 04:30:07;;;;;;;81.28;26.15;;;;;;;-143.48;100.00;118439.88;5058119;28;20031;-66
2022/12/22 04:32:33;;;;;;;68.18;26.52;;;;;;;-143.48;100.00;118439.88;5057458;28;20393;-66
2022/12/22 04:34:59;;;;;;;75.78;26.20;;;;;;;-143.48;100.00;118439.88;5039283;28;20087;-67
2022/12/22 04:37:24;;;;;;;68.68;26.40;;;;;;;-143.48;100.00;118439.88;5039187;28;20029;-66
2022/12/22 04:39:49;;;;;;;69.15;25.50;;;;;;;-143.48;100.00;118439.88;5057205;28;20017;-66
2022/12/22 04:42:14;;;;;;;65.45;25.58;;;;;;;-143.48;100.00;118439.88;5057181;28;20020;-66
2022/12/22 04:44:40;;;;;;;74.28;26.10;;;;;;;-143.48;100.00;118439.88;5056805;28;20468;-66
2022/12/22 04:47:05;;;;;;;75.57;27.05;;;;;;;-143.48;100.00;118439.88;5038786;28;20025;-66
2022/12/22 04:49:30;;;;;;;75.68;26.25;;;;;;;-143.48;100.00;118439.88;5038765;28;20392;-67
2022/12/22 04:51:56;;;;;;;64.75;26.27;;;;;;;-143.48;100.00;118439.88;5056545;28;20441;-67
2022/12/22 04:54:21;;;;;;;67.20;25.52;;;;;;;-143.48;100.00;118439.88;5056583;28;20027;-66
2022/12/22 04:56:46;;;;;;;57.03;23.90;;;;;;;-143.48;100.00;118439.88;5056292;28;20075;-67
2022/12/22 04:59:12;;;;;;;50.55;22.48;;;;;;;-143.48;100.00;118439.88;5038701;28;20025;-67
2022/12/22 05:01:37;;;;;;;45.38;21.48;;;;;;;-143.48;100.00;118439.88;5038365;28;20029;-67
2022/12/22 05:04:02;;;;;;;49.13;20.27;;;;;;;-143.48;100.00;118439.88;5056190;28;20540;-67
2022/12/22 05:06:28;;;;;;;42.20;20.27;;;;;;;-143.48;100.00;118439.88;5056409;28;20044;-67
2022/12/22 05:08:53;;;;;;;43.65;20.20;;;;;;;-143.48;100.00;118439.88;5056152;28;20029;-67
2022/12/22 05:11:18;;;;;;;43.55;19.52;;;;;;;-143.48;100.00;118439.88;5055028;28;20094;-67
2022/12/22 05:13:43;;;;;;;37.90;18.95;;;;;;;-143.48;100.00;118439.88;5056069;28;20032;-67
2022/12/22 05:16:12;;;;;;;37.42;17.88;;;;;;;-143.48;100.00;118439.88;5055937;28;20025;-67
2022/12/22 05:18:39;;;;;;;38.92;18.48;;;;;;;-143.48;99.79;118439.88;5055973;28;20032;-67
2022/12/22 05:21:07;;;;;;;41.58;18.77;;;;;;;-143.48;99.96;118439.88;5055788;28;20071;-67
2022/12/22 05:23:32;;;;;;;46.15;19.13;;;;;;;-143.48;100.00;118439.88;5055622;28;20052;-67
2022/12/22 05:25:57;;;;;;;56.75;21.33;;;;;;;-143.48;100.00;118439.88;5037897;28;20135;-66
2022/12/22 05:28:23;;;;;;;50.42;21.35;;;;;;;-143.48;100.00;118439.88;5055490;28;20021;-67
2022/12/22 05:30:48;;;;;;;50.42;20.30;;;;;;;-143.48;100.00;118439.88;5055684;28;20344;-66
2022/12/22 05:33:13;;;;;;;55.55;22.92;;;;;;;-143.48;100.00;118439.88;5055751;28;20021;-67
2022/12/22 05:35:39;;;;;;;66.88;22.30;;;;;;;-143.48;100.00;118439.88;5054381;28;20025;-66
2022/12/22 05:38:04;;;;;;;61.95;23.13;;;;;;;-143.48;100.00;118439.88;5055675;28;20117;-66
2022/12/22 05:40:29;;;;;;;69.97;24.33;;;;;;;-143.48;100.00;118439.88;5055651;28;20526;-67
2022/12/22 05:42:54;;;;;;;59.85;23.10;;;;;;;-143.48;100.00;118439.88;5055472;28;20029;-66
2022/12/22 05:45:20;;;;;;;66.15;23.98;;;;;;;-143.48;100.00;118439.88;5055248;28;20107;-67
2022/12/22 05:47:48;;;;;;;69.53;24.35;;;;;;;-143.48;100.00;118439.88;5055266;28;20074;-67
2022/12/22 05:50:16;;;;;;;61.03;24.05;;;;;;;-143.48;100.00;118439.88;5068281;28;20092;-67
2022/12/22 05:52:42;;;;;;;61.97;24.55;;;;;;;-143.48;100.00;118439.88;5064644;28;20031;-69
2022/12/22 05:55:08;;;;;;;61.30;23.55;;;;;;;-143.48;99.66;118439.88;5038647;28;20131;-65
2022/12/22 05:57:34;;;;;;;59.55;23.52;;;;;;;-143.48;99.50;118439.88;5055534;28;20027;-66
2022/12/22 06:00:00;;;;;;;60.35;22.33;;;;;;;-143.48;99.59;118439.88;5053062;28;20016;-66
2022/12/22 06:02:25;;;;;;;59.63;22.45;;;;;;;-143.48;99.51;118439.88;5055140;28;20025;-66
2022/12/22 06:04:51;;;;;;;60.67;22.50;;;;;;;-143.48;99.22;118439.88;5054793;28;20029;-66
2022/12/22 06:07:16;;;;;;;61.80;22.10;;;;;;;-143.48;99.00;118439.88;5054921;28;20029;-66
2022/12/22 06:09:41;;;;;;;55.08;21.15;;;;;;;-143.48;98.50;118439.88;5036743;28;20029;-66
2022/12/22 06:12:07;;;;;;;57.78;21.98;;;;;;;-143.48;98.79;118439.88;5054843;28;20024;-66
2022/12/22 06:14:32;;;;;;;51.97;20.58;;;;;;;-143.48;98.78;118439.88;5058880;28;20029;-67
2022/12/22 06:16:58;;;;;;;55.72;22.10;;;;;;;-143.48;99.48;118439.88;5046797;28;20025;-67
2022/12/22 06:19:23;;;;;;;69.57;22.52;;;;;;;-143.48;99.17;118439.88;5054542;28;20020;-67
2022/12/22 06:21:49;;;;;;;57.40;21.85;;;;;;;-143.48;99.04;118439.88;5054245;28;20059;-67
2022/12/22 06:24:14;;;;;;;56.00;20.98;;;;;;;-143.48;99.07;118439.88;5054235;28;20093;-67
2022/12/22 06:26:39;;;;;;;57.97;20.10;;;;;;;-143.48;98.81;118439.88;5036830;28;20486;-67
2022/12/22 06:29:05;;;;;;;56.53;19.55;;;;;;;-143.48;99.00;118439.88;5065220;28;20029;-68
2022/12/22 06:31:31;;;;;;;58.40;18.90;;;;;;;-143.48;99.22;118439.88;5047107;28;20029;-69
2022/12/22 06:33:57;;;;;;;55.28;19.23;;;;;;;-143.48;99.35;118439.88;5048061;28;20095;-68
2022/12/22 06:36:22;;;;;;;66.20;20.08;;;;;;;-143.48;99.48;118439.88;5064502;28;20016;-67
2022/12/22 06:38:48;;;;;;;84.57;20.52;;;;;;;-143.48;99.71;118439.88;5059298;28;20021;-66
2022/12/22 06:41:13;;;;;;;68.13;17.55;;;;;;;-143.48;100.00;118439.88;5054985;28;20025;-66
2022/12/22 06:43:39;;;;;;;106.45;18.08;;;;;;;-143.48;99.54;118439.88;5036507;28;20342;-66
2022/12/22 06:46:04;;;;;;;132.95;18.52;;;;;;;-143.48;99.79;118439.88;5054364;28;20162;-67
2022/12/22 06:48:29;;;;;;;143.00;17.00;;;;;;;-143.48;99.96;118439.88;5054099;28;20476;-67
2022/12/22 06:50:58;;;;;;;137.63;17.75;;;;;;;-143.48;100.00;118439.88;5036360;28;20123;-67
2022/12/22 06:53:24;;;;;;;111.65;15.75;;;;;;;-143.48;100.00;118439.88;5054004;28;20021;-67
2022/12/22 06:55:49;;;;;;;103.57;16.10;;;;;;;-143.48;100.00;118439.88;5053881;28;20089;-66
2022/12/22 06:58:14;;;;;;;202.57;16.13;;;;;;;-143.48;100.00;118439.88;5054310;28;20032;-67
2022/12/22 07:00:40;;;;;;;178.82;17.13;;;;;;;-143.48;100.00;118439.88;5054240;28;20031;-66
2022/12/22 07:03:05;;;;;;;224.38;17.13;;;;;;;-143.48;100.00;118439.88;5053618;28;20492;-67
2022/12/22 07:05:30;;;;;;;163.57;15.48;;;;;;;-143.48;100.00;118439.88;5053882;28;20495;-66
2022/12/22 07:07:56;;;;;;;154.82;14.27;;;;;;;-143.48;99.99;118439.88;5035921;28;20028;-67
2022/12/22 07:10:56;;;;;;;136.05;13.48;;;;;;;-143.48;100.00;118439.88;5053905;28;20094;-67
2022/12/22 07:13:17;;;;;;;130.45;17.63;;;;;;;-143.48;100.00;118439.88;5057204;28;20036;-64
2022/12/22 07:15:43;;;;;;;125.20;15.30;;;;;;;-143.48;100.00;118439.88;5053854;28;20112;-65
2022/12/22 07:18:08;;;;;;;105.10;15.23;;;;;;;-143.48;100.00;118439.88;5036162;28;20060;-66
2022/12/22 07:20:33;;;;;;;103.65;14.48;;;;;;;-143.48;100.00;118439.88;5035894;28;20021;-66
2022/12/22 07:22:59;;;;;;;70.15;15.48;;;;;;;-143.48;100.00;118439.88;5058597;28;20128;-66
2022/12/22 07:25:24;;;;;;;72.18;14.95;;;;;;;-143.48;100.00;118439.88;5057457;28;20033;-66
2022/12/22 07:27:49;;;;;;;74.05;15.65;;;;;;;-143.48;100.00;118439.88;5054534;28;20096;-66
2022/12/22 07:30:14;;;;;;;57.22;15.73;;;;;;;-143.48;100.00;118439.88;5053490;28;20522;-66
2022/12/22 07:32:40;;;;;;;51.47;15.35;;;;;;;-143.48;100.00;118439.88;5053918;28;20033;-66
2022/12/22 07:35:05;;;;;;;57.40;15.55;;;;;;;-143.48;100.00;118439.88;5034358;28;20437;-67
2022/12/22 07:37:31;;;;;;;52.67;16.30;;;;;;;-143.48;99.95;118439.88;5053837;28;20033;-67
2022/12/22 07:39:56;;;;;;;51.83;17.80;;;;;;;-143.48;99.52;118439.88;5035343;28;20496;-67
2022/12/22 07:45:05;;;;;;;46.13;15.07;;;;;;;-143.48;99.40;118439.88;5064109;28;20040;-68
2022/12/22 07:47:30;;;;;;;46.63;14.32;;;;;;;-143.48;98.91;118439.88;5055115;28;20025;-66
2022/12/22 07:52:40;;;;;;;47.53;14.38;;;;;;;-143.48;99.30;118439.88;5053125;28;20036;-66
2022/12/22 07:55:06;;;;;;;42.28;13.13;;;;;;;-143.48;98.68;118439.88;5053004;28;20464;-66
2022/12/22 07:57:31;;;;;;;41.70;13.27;;;;;;;-143.48;98.55;118439.88;5053128;28;20040;-65
2022/12/22 07:59:56;;;;;;;46.97;14.02;;;;;;;-143.48;98.30;118439.88;5053096;28;20025;-66
2022/12/22 08:02:22;;;;;;;39.42;13.30;;;;;;;-143.48;98.08;118439.88;5035411;28;20057;-66
2022/12/22 08:04:47;;;;;;;41.30;13.60;;;;;;;-143.48;98.19;118439.88;5052784;28;20052;-65
2022/12/22 08:07:12;;;;;;;44.72;13.48;;;;;;;-143.48;98.29;118439.88;5035453;28;20025;-66
2022/12/22 08:09:37;;;;;;;42.97;13.57;;;;;;;-143.48;98.57;118439.88;5053277;28;20029;-65
2022/12/22 08:12:03;;;;;;;44.72;12.02;;;;;;;-143.48;98.29;118439.88;5053174;28;20100;-65
2022/12/22 08:14:28;;;;;;;38.45;12.15;;;;;;;-143.48;98.41;118439.88;5035186;28;20029;-65
2022/12/22 08:16:54;;;;;;;42.25;12.82;;;;;;;-143.48;98.25;118439.88;5053138;28;20364;-65
2022/12/22 08:19:19;;;;;;;52.65;12.13;;;;;;;-143.48;98.32;118439.88;5053279;28;20114;-65
2022/12/22 08:21:44;;;;;;;41.00;13.00;;;;;;;-143.48;98.33;118439.88;5035318;28;20479;-65
2022/12/22 08:24:09;;;;;;;38.55;12.73;;;;;;;-143.48;98.13;118439.88;5054437;28;20051;-65
2022/12/22 08:26:40;;;;;;;40.13;12.18;;;;;;;-143.48;97.73;118439.88;5053899;28;20483;-66
2022/12/22 08:29:30;;;;;;;42.53;12.80;;;;;;;-143.48;97.82;118439.88;5052928;28;20028;-66
2022/12/22 08:31:56;;;;;;;43.08;11.38;;;;;;;-143.48;97.60;118439.88;5053016;28;20028;-65
2022/12/22 08:34:21;;;;;;;38.75;11.18;;;;;;;-143.48;97.77;118439.88;5052970;28;20388;-66
2022/12/22 08:36:52;;;;;;;41.42;11.27;;;;;;;-143.48;97.68;118439.88;5052770;28;20040;-66
2022/12/22 08:39:21;;;;;;;33.13;11.32;;;;;;;-143.48;98.14;118439.88;5053147;28;20478;-66
2022/12/22 08:41:49;;;;;;;40.92;10.10;;;;;;;-143.48;97.97;118439.88;5041210;28;20048;-67
2022/12/22 08:44:16;;;;;;;26.08;8.52;;;;;;;-143.48;98.13;118439.88;5062565;28;20036;-66
2022/12/22 08:46:41;;;;;;;33.88;8.20;;;;;;;-143.48;97.58;118439.88;5055826;28;20104;-66
2022/12/22 08:49:06;;;;;;;50.45;8.25;;;;;;;-143.48;97.83;118439.88;5056439;28;20063;-66
2022/12/22 08:51:35;;;;;;;47.92;7.93;;;;;;;-143.48;97.40;118439.88;5059401;28;20485;-66
2022/12/22 08:54:00;;;;;;;52.40;7.50;;;;;;;-143.48;98.22;118439.88;5039143;28;20483;-66
2022/12/22 08:56:26;;;;;;;32.50;7.32;;;;;;;-143.48;98.27;118439.88;5038805;28;20066;-66
2022/12/22 08:58:51;;;;;;;31.40;8.05;;;;;;;-143.48;97.96;118439.88;5056502;28;20381;-67
2022/12/22 09:01:21;;;;;;;41.42;8.68;;;;;;;-143.48;98.83;118439.88;5038364;28;20047;-66
2022/12/22 09:03:50;;;;;;;70.65;8.25;;;;;;;-143.48;98.60;118439.88;5056223;28;20033;-66
2022/12/22 09:06:20;;;;;;;34.88;7.85;;;;;;;-143.48;99.22;118439.88;5055914;28;20033;-66
2022/12/22 09:08:46;;;;;;;33.58;8.50;;;;;;;-143.48;98.88;118439.88;5056248;28;20032;-67
2022/12/22 09:11:12;;;;;;;42.45;7.60;;;;;;;-143.48;98.81;118439.88;5056292;28;20024;-66
2022/12/22 09:13:37;;;;;;;35.58;8.23;;;;;;;-143.48;98.12;118439.88;5056202;28;20036;-66
2022/12/22 09:16:07;;;;;;;34.78;7.93;;;;;;;-143.48;97.83;118439.88;5056115;28;20024;-67
2022/12/22 09:18:32;;;;;;;69.45;7.28;;;;;;;-143.48;97.29;118439.88;5056024;28;20110;-67
2022/12/22 09:20:58;;;;;;;55.28;7.45;;;;;;;-143.48;98.14;118439.88;5038069;28;20029;-67
2022/12/22 09:23:24;;;;;;;52.28;7.65;;;;;;;-143.48;97.34;118439.88;5055802;28;20492;-66
2022/12/22 09:25:49;;;;;;;25.60;7.20;;;;;;;-143.48;97.52;118439.88;5056335;28;20090;-66
2022/12/22 09:28:14;;;;;;;16.55;6.97;;;;;;;-143.48;96.72;118439.88;5037811;28;20028;-67
2022/12/22 09:30:39;;;;;;;24.40;6.20;;;;;;;-143.48;96.40;118439.88;5037806;28;20013;-67
2022/12/22 09:33:05;;;;;;;21.95;6.38;;;;;;;-143.48;96.19;118439.88;5055846;28;20025;-67
2022/12/22 09:35:30;;;;;;;20.88;6.20;;;;;;;-143.48;95.65;118439.88;5055761;28;20412;-67
2022/12/22 09:37:55;;;;;;;16.58;5.97;;;;;;;-143.48;94.36;118439.88;5055693;28;20032;-67
2022/12/22 09:40:21;;;;;;;15.80;5.95;;;;;;;-143.48;94.62;118439.88;5056004;28;20099;-66
2022/12/22 09:42:46;;;;;;;13.40;6.15;;;;;;;-143.48;93.22;118439.88;5055816;28;20029;-68
2022/12/22 09:45:19;;;;;;;16.50;6.30;;;;;;;-143.48;91.96;118439.88;5037791;28;20025;-67
2022/12/22 09:47:52;;;;;;;17.08;6.22;;;;;;;-143.48;92.19;118439.88;5055612;28;20048;-67
2022/12/22 09:50:22;;;;;;;12.10;6.13;;;;;;;-143.48;93.75;118439.88;5055478;28;20040;-67
2022/12/22 09:52:51;;;;;;;19.98;6.28;;;;;;;-143.48;93.07;118439.88;5055467;28;20041;-66
2022/12/22 09:55:22;;;;;;;14.40;6.15;;;;;;;-143.48;91.59;118439.88;5055493;28;20126;-67
2022/12/22 09:57:48;;;;;;;14.93;6.78;;;;;;;-143.48;93.35;118439.88;5055003;28;20024;-67
2022/12/22 10:00:16;;;;;;;14.05;5.88;;;;;;;-143.48;93.44;118439.88;5037591;28;20146;-67
2022/12/22 10:02:48;;;;;;;25.48;6.57;;;;;;;-143.48;94.33;118439.88;5055257;28;20472;-66
2022/12/22 10:05:27;;;;;;;17.58;6.82;;;;;;;-143.48;93.45;118439.88;5055194;28;20472;-67
2022/12/22 10:07:59;;;;;;;17.85;7.20;;;;;;;-143.48;93.25;118439.88;5055362;28;20081;-68
2022/12/22 10:10:28;;;;;;;15.65;7.28;;;;;;;-143.48;92.74;118439.88;5055093;28;20021;-67
2022/12/22 10:12:55;;;;;;;16.58;7.60;;;;;;;-143.48;92.14;118439.88;5055201;28;20520;-67
2022/12/22 10:15:21;;;;;;;11.40;7.10;;;;;;;-143.48;86.40;118439.88;5054911;28;20056;-68
2022/12/22 10:17:50;;;;;;;18.15;6.72;;;;;;;-143.48;85.05;118439.88;5055017;28;20028;-67
2022/12/22 10:20:26;;;;;;;13.98;6.47;;;;;;;-143.48;66.61;118439.88;5054838;28;20104;-67
2022/12/22 10:23:05;;;;;;;9.95;5.88;;;;;;;-143.48;59.98;118439.88;5054811;28;20064;-67
2022/12/22 10:25:31;;;;;;;11.65;6.28;;;;;;;-143.48;57.85;118439.88;5055112;28;20021;-68
2022/12/22 10:28:00;;;;;;;11.38;5.00;;;;;;;-143.48;53.50;118439.88;5037136;28;20132;-67
2022/12/22 10:30:29;;;;;;;9.23;4.95;;;;;;;-143.48;50.65;118439.88;5037066;28;20134;-67
2022/12/22 10:33:06;;;;;;;8.88;5.03;;;;;;;-143.48;50.24;118439.88;5055314;28;20021;-68
2022/12/22 10:35:56;;;;;;;14.68;4.70;;;;;;;-143.48;49.00;118439.88;5055259;28;20456;-68
2022/12/22 10:38:27;;;;;;;9.70;4.88;;;;;;;-143.48;48.47;118439.88;5047629;28;20119;-67
2022/12/22 10:40:56;;;;;;;10.00;4.35;;;;;;;-143.48;50.49;118439.88;5055140;28;20024;-68
2022/12/22 10:43:27;;;;;;;9.15;4.10;;;;;;;-143.48;55.33;118439.88;5055402;28;20098;-68
2022/12/22 10:45:55;;;;;;;9.80;4.47;;;;;;;-143.48;66.68;118439.88;5055679;28;20033;-67
2022/12/22 10:48:29;;;;;;;14.00;5.43;;;;;;;-143.48;71.58;118439.88;5056550;28;20427;-67
2022/12/22 10:50:56;;;;;;;11.68;4.70;;;;;;;-143.48;74.65;118439.88;5056621;28;20373;-67
2022/12/22 10:53:38;;;;;;;14.40;5.20;;;;;;;-143.48;76.77;118439.88;5057172;28;20028;-66
2022/12/22 10:56:05;;;;;;;12.00;4.85;;;;;;;-143.48;78.52;118439.88;5058849;28;20116;-67
2022/12/22 10:58:32;;;;;;;9.55;4.38;;;;;;;-143.48;79.28;118439.88;5060381;28;20025;-66
2022/12/22 11:01:03;;;;;;;18.73;4.80;;;;;;;-143.48;78.88;118439.88;5060176;28;20017;-67
2022/12/22 11:03:30;;;;;;;11.98;4.15;;;;;;;-143.48;79.89;118439.88;5062731;28;20029;-67
2022/12/22 11:05:56;;;;;;;13.50;4.45;;;;;;;-143.48;80.53;118439.88;5042976;28;20021;-66
2022/12/22 11:08:23;;;;;;;12.30;4.47;;;;;;;-143.48;82.31;118439.88;5062451;28;20357;-67
2022/12/22 11:10:58;;;;;;;12.00;4.18;;;;;;;-143.48;81.78;118439.88;5060593;28;20159;-67
2022/12/22 11:13:42;;;;;;;11.48;4.28;;;;;;;-143.48;82.44;118439.88;5043799;28;20025;-66
2022/12/22 11:16:31;;;;;;;12.70;3.70;;;;;;;-143.48;83.13;118439.88;5061778;28;20040;-68
2022/12/22 11:19:02;;;;;;;10.57;4.03;;;;;;;-143.48;81.87;118439.88;5060344;28;20119;-67
2022/12/22 11:21:45;;;;;;;7.60;3.72;;;;;;;-143.48;82.17;118439.88;5059662;28;20027;-67
2022/12/22 11:24:13;;;;;;;;;;;;;;;-143.48;81.75;118439.88;5059793;28;20054;-66
2022/12/22 11:27:00;;;;;;;12.48;4.05;;;;;;;-143.48;81.51;118439.88;5057584;28;19935;-66
2022/12/22 11:30:03;;;;;;;13.13;3.85;;;;;;;-143.48;82.60;118439.88;5055794;28;20384;-67
2022/12/22 11:32:57;;;;;;;12.97;3.70;;;;;;;-143.48;82.93;118439.88;5037988;28;20029;-66
2022/12/22 11:35:48;;;;;;;;;;;;;;;-143.48;82.65;118439.88;5036267;28;20397;-67
2022/12/22 11:38:29;;;;;;;11.48;3.65;;;;;;;-143.48;82.12;118439.88;5052836;28;19915;-66
2022/12/22 11:41:03;;;;;;;11.85;3.75;;;;;;;-143.48;81.95;118439.88;5052753;28;20049;-67
2022/12/22 11:43:59;;;;;;;10.32;4.10;;;;;;;-143.48;83.17;118439.88;5053170;28;20086;-67
2022/12/22 11:46:30;;;;;;;11.32;4.05;;;;;;;-143.48;80.87;118439.88;5052448;28;20048;-66
2022/12/22 11:48:58;;;;;;;13.68;4.28;;;;;;;-143.48;81.20;118439.88;5034669;28;20056;-66
2022/12/22 11:51:41;;;;;;;13.73;3.90;;;;;;;-143.48;81.92;118439.88;5054906;28;20039;-67
2022/12/22 11:54:36;;;;;;;13.55;4.10;;;;;;;-143.48;81.72;118439.88;5054031;28;20507;-67
2022/12/22 11:57:39;;;;;;;13.05;4.53;;;;;;;-143.48;81.17;118439.88;5053794;28;20416;-66
2022/12/22 12:00:10;;;;;;;8.73;3.75;;;;;;;-143.48;78.57;118439.88;5035758;28;20028;-67
2022/12/22 12:03:00;;;;;;;10.65;4.10;;;;;;;-143.48;78.06;118439.88;5035570;28;20032;-66
2022/12/22 12:05:56;;;;;;;10.32;3.88;;;;;;;-143.48;64.08;118439.88;5035560;28;20112;-67
2022/12/22 12:08:24;;;;;;;10.85;3.70;;;;;;;-143.48;53.34;118439.88;5053610;28;20017;-67
2022/12/22 12:10:52;;;;;;;12.77;3.97;;;;;;;-143.48;52.31;118439.88;5035438;28;20087;-67
2022/12/22 12:13:38;;;;;;;7.13;3.65;;;;;;;-143.48;62.74;118439.88;5053689;28;20040;-67
2022/12/22 12:16:20;;;;;;;15.52;4.03;;;;;;;-143.48;73.32;118439.88;5053011;28;20032;-67
2022/12/22 12:18:45;;;;;;;12.85;4.40;;;;;;;-143.48;78.27;118439.88;5053443;28;20031;-66
2022/12/22 12:21:27;;;;;;;10.20;4.40;;;;;;;-143.48;80.44;118439.88;5037797;28;20119;-67
2022/12/22 12:24:11;;;;;;;16.55;4.65;;;;;;;-143.48;79.27;118439.88;5038644;28;20068;-67
2022/12/22 12:26:51;;;;;;;15.02;4.80;;;;;;;-143.48;74.51;118439.88;5057145;28;20490;-67
2022/12/22 12:29:45;;;;;;;11.68;4.53;;;;;;;-143.48;80.81;118439.88;5039294;28;20025;-67
2022/12/22 12:32:17;;;;;;;18.90;5.22;;;;;;;-143.48;82.22;118439.88;5056883;28;20364;-67
2022/12/22 12:34:48;;;;;;;10.73;4.87;;;;;;;-143.48;65.21;118439.88;5056679;28;20025;-67
2022/12/22 12:37:32;;;;;;;12.95;4.95;;;;;;;-143.48;67.04;118439.88;5061723;28;20063;-67
2022/12/22 12:40:19;;;;;;;10.60;4.55;;;;;;;-143.48;77.46;118439.88;5057689;28;20025;-66
2022/12/22 12:42:46;;;;;;;14.98;5.22;;;;;;;-143.48;81.24;118439.88;5057039;28;20394;-67
2022/12/22 12:45:44;;;;;;;11.23;5.10;;;;;;;-143.48;81.37;118439.88;5057678;28;20021;-67
2022/12/22 12:48:21;;;;;;;10.15;5.43;;;;;;;-143.48;82.81;118439.88;5057930;28;20060;-66
2022/12/22 12:50:54;;;;;;;16.88;6.80;;;;;;;-143.48;85.47;118439.88;5057473;28;20135;-67
2022/12/22 12:53:24;;;;;;;15.98;7.70;;;;;;;-143.48;87.02;118439.88;5056955;28;20031;-67
2022/12/22 12:55:51;;;;;;;18.65;8.48;;;;;;;-143.48;87.54;118439.88;5057222;28;20025;-68
2022/12/22 12:58:38;;;;;;;16.05;9.73;;;;;;;-143.48;88.74;118439.88;5056884;28;20031;-67
2022/12/22 13:01:12;;;;;;;21.77;9.93;;;;;;;-143.48;90.00;118439.88;5056801;28;20017;-67
2022/12/22 13:03:42;;;;;;;17.83;9.50;;;;;;;-143.48;90.38;118439.88;5038971;28;20033;-66
2022/12/22 13:06:09;;;;;;;22.10;8.65;;;;;;;-143.48;91.88;118439.88;5056971;28;20052;-65
2022/12/22 13:08:47;;;;;;;19.70;8.82;;;;;;;-143.48;92.59;118439.88;5056353;28;20100;-66
2022/12/22 13:11:13;;;;;;;27.60;10.68;;;;;;;-143.48;93.14;118439.88;5056436;28;20021;-66
2022/12/22 13:13:39;;;;;;;23.55;9.98;;;;;;;-143.48;93.40;118439.88;5056477;28;20040;-66
2022/12/22 13:16:04;;;;;;;20.90;9.30;;;;;;;-143.48;92.74;118439.88;5056382;28;20051;-67
2022/12/22 13:18:32;;;;;;;19.50;8.93;;;;;;;-143.48;92.18;118439.88;5056470;28;20099;-66
2022/12/22 13:21:07;;;;;;;18.02;8.60;;;;;;;-143.48;90.77;118439.88;5056402;28;20086;-66
2022/12/22 13:23:39;;;;;;;22.60;9.40;;;;;;;-143.48;90.82;118439.88;5056924;28;20056;-66
2022/12/22 13:26:08;;;;;;;21.03;10.13;;;;;;;-143.48;90.39;118439.88;5056315;28;20032;-66
2022/12/22 13:28:35;;;;;;;22.75;10.63;;;;;;;-143.48;90.61;118439.88;5056455;28;20032;-67
2022/12/22 13:31:17;;;;;;;21.05;10.30;;;;;;;-143.48;89.75;118439.88;5056412;28;20029;-66
2022/12/22 13:33:44;;;;;;;20.38;10.68;;;;;;;-143.48;89.40;118439.88;5054193;28;20025;-67
2022/12/22 13:36:18;;;;;;;25.00;12.00;;;;;;;-143.48;90.63;118439.88;5038341;28;20029;-66
2022/12/22 13:38:44;;;;;;;26.63;12.35;;;;;;;-143.48;91.24;118439.88;5056268;28;20367;-67
2022/12/22 13:41:16;;;;;;;29.40;12.30;;;;;;;-143.48;91.24;118439.88;5056265;28;20016;-67
2022/12/22 13:43:46;;;;;;;22.30;11.68;;;;;;;-143.48;92.26;118439.88;5056072;28;20021;-66
2022/12/22 13:46:12;;;;;;;30.00;13.25;;;;;;;-143.48;92.00;118439.88;5055524;28;20461;-67
2022/12/22 13:48:44;;;;;;;28.17;11.88;;;;;;;-143.48;91.15;118439.88;5055856;28;20028;-67
2022/12/22 13:51:25;;;;;;;28.10;13.43;;;;;;;-143.48;91.98;118439.88;5055330;28;20028;-67
2022/12/22 13:53:55;;;;;;;28.58;12.60;;;;;;;-143.48;90.85;118439.88;5037498;28;20024;-67
2022/12/22 13:56:24;;;;;;;35.53;13.93;;;;;;;-143.48;91.90;118439.88;5055536;28;20040;-67
2022/12/22 13:58:58;;;;;;;33.33;13.77;;;;;;;-143.48;91.08;118439.88;5055326;28;20024;-67
2022/12/22 14:01:24;;;;;;;30.90;13.77;;;;;;;-143.48;91.44;118439.88;5055135;28;20024;-66
2022/12/22 14:03:57;;;;;;;32.33;13.55;;;;;;;-143.48;91.10;118439.88;5055072;28;20029;-67
2022/12/22 14:06:30;;;;;;;30.45;14.73;;;;;;;-143.48;91.36;118439.88;5054958;28;20142;-66
2022/12/22 14:09:08;;;;;;;;;;;;;;;-143.48;91.27;118439.88;5055392;28;20118;-66
2022/12/22 14:11:33;;;;;;;33.92;13.23;;;;;;;-143.48;91.54;118439.88;5036964;28;19909;-67
2022/12/22 14:13:59;;;;;;;32.38;14.25;;;;;;;-143.48;91.08;118439.88;5054929;28;20050;-67
2022/12/22 14:16:24;;;;;;;28.58;13.43;;;;;;;-143.48;90.96;118439.88;5054693;28;20024;-67
2022/12/22 14:18:52;;;;;;;31.67;14.13;;;;;;;-143.48;90.80;118439.88;5054788;28;20020;-67
2022/12/22 14:21:17;;;;;;;31.92;14.18;;;;;;;-143.48;90.25;118439.88;5054651;28;20036;-66
2022/12/22 14:23:44;;;;;;;30.48;14.88;;;;;;;-143.48;90.58;118439.88;5053109;28;20052;-66
2022/12/22 14:26:17;;;;;;;35.13;15.07;;;;;;;-143.48;90.63;118439.88;5036855;28;20021;-67
2022/12/22 14:28:50;;;;;;;35.15;15.30;;;;;;;-143.48;90.42;118439.88;5053251;28;20021;-67
2022/12/22 14:31:17;;;;;;;35.15;14.65;;;;;;;-143.48;90.35;118439.88;5036777;28;20060;-67
2022/12/22 14:34:04;;;;;;;31.13;15.05;;;;;;;-143.48;89.61;118439.88;5054561;28;20025;-67
2022/12/22 14:36:40;;;;;;;31.85;14.30;;;;;;;-143.48;89.83;118439.88;5054426;28;20035;-66
2022/12/22 14:39:22;;;;;;;29.95;14.50;;;;;;;-143.48;90.35;118439.88;5054882;28;20013;-67
2022/12/22 14:41:51;;;;;;;33.38;14.65;;;;;;;-143.48;90.43;118439.88;5036506;28;20047;-66
2022/12/22 14:44:31;;;;;;;35.50;15.13;;;;;;;-143.48;90.04;118439.88;5054248;28;20087;-68
2022/12/22 14:47:08;;;;;;;35.70;15.63;;;;;;;-143.48;89.95;118439.88;5054354;28;20504;-66